Time;durP1;ratioP1;P1;durP2;ratioP2;P2;SDS_P1;SDS_P2;PMS_P1;PMS_P2;Temp;Humidity;BMP_temperature;BMP_pressure;BME280_temperature;BME280_humidity;BME280_pressure;Samples;Min_cycle;Max_cycle;Signal;HPM_P1;HPM_P2
2021/06/08 00:00:49;;;;;;;19.45;15.80;;;384.60;2329.60;;;;;;5032558;28;20026;-67
2021/06/08 00:03:14;;;;;;;18.75;16.42;;;384.50;2329.60;;;;;;5031531;28;20075;-67
2021/06/08 00:05:40;;;;;;;19.83;16.50;;;384.60;2329.60;;;;;;5032875;28;20033;-67
2021/06/08 00:08:06;;;;;;;19.40;16.48;;;384.60;2329.60;;;;;;5032369;28;20029;-71
2021/06/08 00:10:32;;;;;;;18.33;15.98;;;384.60;2329.60;;;;;;5032682;28;20033;-67
2021/06/08 00:12:57;;;;;;;18.00;16.05;;;384.60;2329.60;;;;;;5032426;28;20025;-71
2021/06/08 00:15:23;;;;;;;18.17;15.82;;;384.60;2329.60;;;;;;5030362;28;20494;-73
2021/06/08 00:17:49;;;;;;;17.10;15.30;;;384.70;2329.60;;;;;;5032686;28;20021;-69
2021/06/08 00:20:15;;;;;;;18.95;15.85;;;384.70;2329.60;;;;;;5032283;28;20390;-67
2021/06/08 00:22:41;;;;;;;17.77;15.85;;;384.70;2329.60;;;;;;5032322;28;20018;-67
2021/06/08 00:25:07;;;;;;;16.70;14.90;;;384.70;2329.60;;;;;;5032195;28;20082;-69
2021/06/08 00:27:33;;;;;;;17.80;14.90;;;384.70;2329.60;;;;;;5032361;28;20029;-68
2021/06/08 00:29:59;;;;;;;17.50;14.65;;;384.70;2329.60;;;;;;5032582;28;20493;-68
2021/06/08 00:32:25;;;;;;;20.88;15.75;;;384.70;2329.60;;;;;;5032233;28;20112;-68
2021/06/08 00:34:51;;;;;;;20.65;16.42;;;384.70;2329.60;;;;;;5032539;28;20517;-68
2021/06/08 00:37:16;;;;;;;19.30;15.57;;;384.60;2329.60;;;;;;5032383;28;20075;-68
2021/06/08 00:39:43;;;;;;;19.52;16.35;;;384.40;2329.60;;;;;;5032154;28;20471;-69
2021/06/08 00:42:09;;;;;;;21.02;16.13;;;384.40;2329.60;;;;;;5031916;28;20021;-70
2021/06/08 00:44:34;;;;;;;20.42;16.83;;;384.40;2329.60;;;;;;5032214;28;20047;-69
2021/06/08 00:47:00;;;;;;;19.52;15.85;;;384.30;2329.60;;;;;;5032410;28;20056;-69
2021/06/08 00:49:26;;;;;;;19.85;15.65;;;384.20;2329.60;;;;;;5032089;28;20021;-71
2021/06/08 00:51:53;;;;;;;20.42;16.15;;;384.10;2329.60;;;;;;5032416;28;20152;-69
2021/06/08 00:54:18;;;;;;;20.00;16.35;;;384.00;2329.60;;;;;;5032004;28;20029;-74
2021/06/08 00:56:46;;;;;;;20.05;16.40;;;359.30;2329.60;;;;;;5032105;28;20021;-74
2021/06/08 00:59:12;;;;;;;22.10;16.67;;;359.20;2329.60;;;;;;5032197;28;20029;-75
2021/06/08 01:01:38;;;;;;;21.80;17.88;;;359.20;2329.60;;;;;;5032304;28;20026;-72
2021/06/08 01:04:06;;;;;;;21.77;18.10;;;359.10;2329.60;;;;;;5032056;28;20025;-72
2021/06/08 01:06:33;;;;;;;19.85;17.52;;;359.00;2329.60;;;;;;5031898;28;20021;-72
2021/06/08 01:08:59;;;;;;;22.05;17.92;;;358.90;2329.60;;;;;;5031861;28;20029;-69
2021/06/08 01:11:25;;;;;;;21.80;17.95;;;358.90;2329.60;;;;;;5014016;28;20117;-68
2021/06/08 01:13:50;;;;;;;22.23;18.50;;;358.90;2329.60;;;;;;5031808;28;20025;-68
2021/06/08 01:16:16;;;;;;;27.65;21.60;;;358.90;2329.60;;;;;;5034988;28;20457;-69
2021/06/08 01:18:42;;;;;;;28.40;23.40;;;358.90;2329.60;;;;;;5035553;28;20046;-68
2021/06/08 01:21:12;;;;;;;27.92;23.25;;;358.80;2329.60;;;;;;5035624;28;20021;-68
2021/06/08 01:23:39;;;;;;;25.92;21.33;;;358.80;2329.60;;;;;;5035259;28;20023;-69
2021/06/08 01:26:06;;;;;;;24.45;20.23;;;358.80;2329.60;;;;;;5035506;28;20037;-68
2021/06/08 01:28:34;;;;;;;21.73;18.52;;;358.80;2329.60;;;;;;5035381;28;20063;-68
2021/06/08 01:31:12;;;;;;;22.45;18.55;;;358.90;2329.60;;;;;;5035515;28;20078;-68
2021/06/08 01:33:41;;;;;;;23.15;18.70;;;358.90;2329.60;;;;;;5035294;28;20021;-69
2021/06/08 01:36:09;;;;;;;22.75;19.13;;;359.00;2329.60;;;;;;5035684;28;20045;-68
2021/06/08 01:38:38;;;;;;;22.33;18.40;;;359.00;2329.60;;;;;;5035054;28;20026;-69
2021/06/08 01:41:04;;;;;;;20.87;17.83;;;359.00;2329.60;;;;;;5035246;28;20025;-69
2021/06/08 01:43:30;;;;;;;21.48;16.98;;;359.10;2329.60;;;;;;5035041;28;20608;-68
2021/06/08 01:45:56;;;;;;;19.42;16.63;;;359.10;2329.60;;;;;;5035140;28;20028;-68
2021/06/08 01:48:22;;;;;;;22.55;17.40;;;359.10;2329.60;;;;;;5035115;28;20101;-75
2021/06/08 01:50:50;;;;;;;20.67;17.35;;;359.10;2329.60;;;;;;5035035;28;20112;-78
2021/06/08 01:53:34;;;;;;;21.10;16.67;;;359.10;2329.60;;;;;;5034929;28;20466;-78
2021/06/08 01:56:06;;;;;;;18.70;16.70;;;359.10;2329.60;;;;;;5034879;28;20100;-78
2021/06/08 01:58:44;;;;;;;19.55;16.08;;;359.10;2329.60;;;;;;5034851;28;20130;-70
2021/06/08 02:01:20;;;;;;;20.85;16.55;;;359.10;2329.60;;;;;;5034779;28;20504;-68
2021/06/08 02:03:57;;;;;;;19.75;16.55;;;359.10;2329.60;;;;;;5034820;28;20030;-70
2021/06/08 02:06:32;;;;;;;20.38;17.08;;;359.10;2329.60;;;;;;5034789;28;20025;-70
2021/06/08 02:09:09;;;;;;;19.95;16.88;;;359.10;2329.60;;;;;;5035031;28;20048;-70
2021/06/08 02:11:49;;;;;;;20.08;17.08;;;359.00;2329.60;;;;;;5022477;28;20191;-70
2021/06/08 02:14:26;;;;;;;21.30;16.98;;;359.10;2329.60;;;;;;5034416;28;20488;-70
2021/06/08 02:17:07;;;;;;;21.20;17.55;;;359.10;2329.60;;;;;;5034696;28;20035;-70
2021/06/08 02:19:35;;;;;;;21.52;17.15;;;359.00;2329.60;;;;;;5034234;28;20038;-69
2021/06/08 02:22:05;;;;;;;19.70;17.17;;;359.00;2329.60;;;;;;5034489;28;20018;-68
2021/06/08 02:24:31;;;;;;;19.65;16.08;;;359.00;2329.60;;;;;;5034215;28;20072;-70
2021/06/08 02:27:03;;;;;;;19.90;16.00;;;359.00;2329.60;;;;;;5033168;28;20064;-69
2021/06/08 02:29:30;;;;;;;20.33;17.13;;;359.00;2329.60;;;;;;5034725;28;20026;-68
2021/06/08 02:31:56;;;;;;;20.75;17.02;;;359.00;2329.60;;;;;;5034145;28;20032;-68
2021/06/08 02:34:23;;;;;;;18.75;15.68;;;359.10;2329.60;;;;;;5034238;28;20032;-73
2021/06/08 02:36:52;;;;;;;18.77;15.95;;;359.10;2329.60;;;;;;5034142;28;20029;-73
2021/06/08 02:39:19;;;;;;;19.42;16.00;;;359.10;2329.60;;;;;;5034266;28;20021;-72
2021/06/08 02:41:45;;;;;;;18.67;15.85;;;359.00;2329.60;;;;;;5034091;28;20108;-69
2021/06/08 02:44:13;;;;;;;17.48;15.13;;;359.00;2329.60;;;;;;5034052;28;20131;-69
2021/06/08 02:46:40;;;;;;;19.23;15.23;;;359.00;2329.60;;;;;;5034387;28;20022;-69
2021/06/08 02:49:07;;;;;;;19.88;15.70;;;359.00;2329.60;;;;;;5033692;28;20498;-68
2021/06/08 02:51:35;;;;;;;18.90;15.45;;;359.00;2329.60;;;;;;5033954;28;20025;-69
2021/06/08 02:54:02;;;;;;;21.33;15.93;;;359.00;2329.60;;;;;;5033795;28;20092;-69
2021/06/08 02:56:28;;;;;;;19.50;15.65;;;359.00;2329.60;;;;;;5033831;28;20017;-69
2021/06/08 02:58:55;;;;;;;18.85;14.85;;;359.00;2329.60;;;;;;5033911;28;20033;-68
2021/06/08 03:01:21;;;;;;;17.88;15.52;;;359.00;2329.60;;;;;;5033803;28;20032;-70
2021/06/08 03:03:50;;;;;;;18.42;15.63;;;359.00;2329.60;;;;;;5033466;28;20064;-69
2021/06/08 03:06:24;;;;;;;20.73;16.52;;;359.10;2329.60;;;;;;5033551;28;20020;-69
2021/06/08 03:09:06;;;;;;;18.65;15.32;;;359.00;2329.60;;;;;;5033645;28;20101;-69
2021/06/08 03:11:49;;;;;;;17.52;14.95;;;359.00;2329.60;;;;;;5020940;28;20048;-70
2021/06/08 03:14:16;;;;;;;17.95;15.00;;;359.00;2329.60;;;;;;5033352;28;20487;-69
2021/06/08 03:16:56;;;;;;;19.05;15.27;;;358.90;2329.60;;;;;;5033463;28;20040;-68
2021/06/08 03:19:30;;;;;;;16.60;14.85;;;358.90;2329.60;;;;;;5048645;28;20418;-68
2021/06/08 03:21:59;;;;;;;16.00;14.02;;;358.80;2329.60;;;;;;5033345;28;20033;-68
2021/06/08 03:24:29;;;;;;;17.15;13.88;;;358.80;2329.60;;;;;;5033191;28;20040;-68
2021/06/08 03:26:57;;;;;;;16.30;13.73;;;358.90;2329.60;;;;;;5048567;28;20032;-71
2021/06/08 03:29:25;;;;;;;18.85;14.15;;;358.90;2329.60;;;;;;5033313;28;20061;-67
2021/06/08 03:31:51;;;;;;;17.13;13.77;;;359.00;2329.60;;;;;;5033112;28;20079;-67
2021/06/08 03:34:18;;;;;;;16.75;14.48;;;359.00;2329.60;;;;;;5033201;28;20475;-68
2021/06/08 03:36:49;;;;;;;19.30;15.05;;;359.10;2329.60;;;;;;5033051;28;20108;-72
2021/06/08 03:39:17;;;;;;;17.55;15.10;;;359.10;2329.60;;;;;;5032935;28;20479;-68
2021/06/08 03:41:45;;;;;;;17.88;15.10;;;359.10;2329.60;;;;;;5032945;28;20025;-67
2021/06/08 03:44:13;;;;;;;19.10;14.57;;;359.10;2329.60;;;;;;5032893;28;20483;-68
2021/06/08 03:46:39;;;;;;;17.75;14.27;;;359.20;2329.60;;;;;;5032852;28;20037;-68
2021/06/08 03:49:05;;;;;;;19.25;15.55;;;359.30;2329.60;;;;;;5032771;28;20018;-69
2021/06/08 03:51:32;;;;;;;19.17;15.45;;;359.30;2329.60;;;;;;5032671;28;20025;-70
2021/06/08 03:53:59;;;;;;;17.83;14.88;;;359.30;2329.60;;;;;;5044509;28;20036;-69
2021/06/08 03:56:25;;;;;;;19.38;15.35;;;359.30;2329.60;;;;;;5050483;28;20025;-68
2021/06/08 03:58:54;;;;;;;17.92;15.10;;;359.30;2329.60;;;;;;5049330;28;20040;-69
2021/06/08 04:01:21;;;;;;;20.10;14.93;;;384.00;2329.60;;;;;;5049287;28;20459;-73
2021/06/08 04:03:51;;;;;;;18.75;15.20;;;384.10;2329.60;;;;;;5050071;28;20053;-67
2021/06/08 04:06:19;;;;;;;19.75;15.63;;;384.20;2329.60;;;;;;5027982;28;20016;-72
2021/06/08 04:08:46;;;;;;;20.00;15.27;;;384.30;2329.60;;;;;;5032067;28;20494;-70
2021/06/08 04:11:12;;;;;;;19.17;15.02;;;384.40;2329.60;;;;;;5047764;28;20026;-72
2021/06/08 04:13:40;;;;;;;18.30;14.45;;;384.50;2329.60;;;;;;5050113;28;20111;-70
2021/06/08 04:16:10;;;;;;;19.75;15.00;;;384.50;2329.60;;;;;;5047510;28;20029;-71
2021/06/08 04:18:38;;;;;;;18.95;14.75;;;384.60;2329.60;;;;;;5049846;28;20407;-68
2021/06/08 04:21:04;;;;;;;16.77;14.68;;;384.70;2329.60;;;;;;5048199;28;20032;-69
2021/06/08 04:23:31;;;;;;;21.90;14.98;;;384.70;2329.60;;;;;;5045505;28;20025;-69
2021/06/08 04:25:58;;;;;;;20.08;14.50;;;384.90;2329.60;;;;;;5032297;28;20471;-68
2021/06/08 04:28:26;;;;;;;18.70;14.13;;;409.70;2355.20;;;;;;5032166;28;20053;-73
2021/06/08 04:30:53;;;;;;;19.10;14.25;;;409.90;2355.20;;;;;;5032256;28;20026;-67
2021/06/08 04:33:24;;;;;;;20.27;14.65;;;409.90;2355.20;;;;;;5032065;28;20025;-70
2021/06/08 04:35:50;;;;;;;15.75;14.05;;;410.00;2355.20;;;;;;5032243;28;20125;-68
2021/06/08 04:38:17;;;;;;;18.20;14.20;;;410.20;2355.20;;;;;;5032267;28;20037;-71
2021/06/08 04:40:48;;;;;;;16.58;13.93;;;410.30;2355.20;;;;;;5031926;28;20025;-70
2021/06/08 04:43:19;;;;;;;17.83;14.32;;;410.30;2355.20;;;;;;5032066;28;20040;-67
2021/06/08 04:45:45;;;;;;;19.77;13.88;;;410.50;2355.20;;;;;;5032098;28;20029;-68
2021/06/08 04:48:10;;;;;;;15.00;13.32;;;435.20;2355.20;;;;;;5032058;28;20022;-68
2021/06/08 04:50:36;;;;;;;18.23;14.15;;;435.40;2355.20;;;;;;5034139;28;20049;-68
2021/06/08 04:53:04;;;;;;;17.65;14.82;;;435.50;2355.20;;;;;;5036142;28;20033;-69
2021/06/08 04:55:30;;;;;;;20.58;14.43;;;435.60;2355.20;;;;;;5035948;28;20028;-68
2021/06/08 04:57:56;;;;;;;18.10;14.25;;;435.80;2355.20;;;;;;5036409;28;20026;-68
2021/06/08 05:00:39;;;;;;;18.13;14.77;;;436.00;2355.20;;;;;;5035971;28;20028;-68
2021/06/08 05:03:18;;;;;;;16.52;14.48;;;436.10;2355.20;;;;;;5036010;28;20018;-68
2021/06/08 05:05:51;;;;;;;21.48;14.57;;;460.80;2380.80;;;;;;5036013;28;20356;-72
2021/06/08 05:08:34;;;;;;;20.65;14.50;;;460.90;2380.80;;;;;;5036159;28;20024;-69
2021/06/08 05:11:07;;;;;;;17.20;13.90;;;461.10;2380.80;;;;;;5036048;28;20135;-68
2021/06/08 05:13:35;;;;;;;16.88;13.63;;;461.20;2380.80;;;;;;5036095;28;20030;-69
2021/06/08 05:16:03;;;;;;;16.00;14.20;;;461.30;2380.80;;;;;;5035672;28;20101;-69
2021/06/08 05:18:31;;;;;;;18.15;15.77;;;461.40;2380.80;;;;;;5035495;28;20087;-73
2021/06/08 05:20:57;;;;;;;16.10;14.40;;;461.60;2380.80;;;;;;5035577;28;20036;-67
2021/06/08 05:23:24;;;;;;;15.90;12.77;;;461.70;2380.80;;;;;;5035442;28;20026;-71
2021/06/08 05:25:51;;;;;;;15.10;12.85;;;486.40;2380.80;;;;;;5035828;28;20029;-70
2021/06/08 05:28:19;;;;;;;15.60;12.50;;;486.50;2380.80;;;;;;5035649;28;20439;-73
2021/06/08 05:30:47;;;;;;;15.90;13.65;;;486.60;2380.80;;;;;;5017674;28;20438;-68
2021/06/08 05:33:22;;;;;;;16.20;13.52;;;486.50;2380.80;;;;;;5035358;28;20026;-71
2021/06/08 05:35:51;;;;;;;15.45;13.02;;;486.70;2380.80;;;;;;5035773;28;20030;-68
2021/06/08 05:38:16;;;;;;;15.07;13.25;;;487.00;2380.80;;;;;;5035408;28;20018;-71
2021/06/08 05:40:44;;;;;;;14.25;12.77;;;487.10;2380.80;;;;;;5035122;28;20610;-67
2021/06/08 05:43:10;;;;;;;13.57;11.73;;;487.30;2380.80;;;;;;5035148;28;20017;-69
2021/06/08 05:45:36;;;;;;;14.75;12.70;;;512.20;2380.80;;;;;;5035322;28;20025;-69
2021/06/08 05:48:03;;;;;;;14.65;12.75;;;487.30;2380.80;;;;;;5035133;28;20108;-67
2021/06/08 05:50:29;;;;;;;14.60;12.52;;;512.10;2380.80;;;;;;5034948;28;20033;-69
2021/06/08 05:52:55;;;;;;;17.30;13.70;;;512.10;2380.80;;;;;;5035263;28;20025;-71
2021/06/08 05:55:24;;;;;;;14.10;11.75;;;512.20;2380.80;;;;;;5035004;28;20061;-69
2021/06/08 05:57:54;;;;;;;14.60;11.40;;;512.00;2380.80;;;;;;5034991;28;20026;-69
2021/06/08 06:00:21;;;;;;;14.45;11.02;;;512.40;2380.80;;;;;;5034170;28;20545;-69
2021/06/08 10:07:06;;;;;;;8.18;4.50;;;768.30;2201.60;;;;;;4225040;22;22714;-75
2021/06/08 10:09:31;;;;;;;7.50;4.57;;;768.50;2176.00;;;;;;5054392;28;20478;-73
2021/06/08 10:12:04;;;;;;;10.95;7.72;;;768.40;2201.60;;;;;;5054110;28;20027;-73
2021/06/08 10:14:39;;;;;;;7.72;4.32;;;768.50;2073.60;;;;;;5041039;28;20498;-72
2021/06/08 10:17:09;;;;;;;9.23;6.75;;;768.10;2099.20;;;;;;5061187;28;20036;-72
2021/06/08 10:19:35;;;;;;;7.38;5.57;;;768.30;2099.20;;;;;;5070273;28;20052;-72
2021/06/08 10:22:01;;;;;;;5.30;3.60;;;768.40;2099.20;;;;;;5039330;28;20474;-74
2021/06/08 10:24:28;;;;;;;14.73;11.27;;;768.40;1945.60;;;;;;5053479;28;20074;-73
2021/06/08 10:26:56;;;;;;;5.13;3.40;;;768.70;1996.80;;;;;;5054132;28;20360;-73
2021/06/08 10:29:27;;;;;;;4.57;3.45;;;768.80;1945.60;;;;;;5054047;28;20497;-71
2021/06/08 10:31:54;;;;;;;16.52;11.48;;;768.70;1945.60;;;;;;5054365;28;20091;-72
2021/06/08 10:34:20;;;;;;;4.45;3.72;;;768.80;1920.00;;;;;;5054431;28;20383;-73
2021/06/08 10:36:48;;;;;;;5.25;3.75;;;768.80;1920.00;;;;;;5053790;28;20064;-74
2021/06/08 10:39:17;;;;;;;4.97;3.45;;;768.90;1894.40;;;;;;5054365;28;20021;-73
2021/06/08 10:41:44;;;;;;;4.80;3.55;;;768.90;1945.60;;;;;;5053920;28;20029;-73
2021/06/08 10:44:27;;;;;;;5.60;3.35;;;768.90;1920.00;;;;;;5053784;28;20421;-73
2021/06/08 10:47:31;;;;;;;10.40;7.15;;;793.60;1945.60;;;;;;5053860;28;20063;-73
2021/06/08 10:49:57;;;;;;;7.63;6.00;;;768.80;1894.40;;;;;;5054258;28;20032;-72
2021/06/08 10:52:25;;;;;;;5.78;3.70;;;768.70;1920.00;;;;;;5053777;28;20442;-74
2021/06/08 10:54:54;;;;;;;4.07;3.35;;;768.90;1894.40;;;;;;5053794;28;20082;-73
2021/06/08 10:57:20;;;;;;;6.22;3.25;;;768.90;1868.80;;;;;;5053593;28;20032;-73
2021/06/08 10:59:51;;;;;;;6.47;3.20;;;768.80;1843.20;;;;;;5053796;28;20045;-72
2021/06/08 11:02:43;;;;;;;7.07;3.50;;;768.90;1817.60;;;;;;5053736;28;20032;-72
2021/06/08 11:05:09;;;;;;;4.03;3.03;;;793.60;1868.80;;;;;;5043418;28;20063;-73
2021/06/08 11:07:44;;;;;;;5.88;3.30;;;793.60;1792.00;;;;;;5053478;28;20037;-73
2021/06/08 11:10:25;;;;;;;5.80;3.30;;;768.90;1817.60;;;;;;5053518;28;20021;-73
2021/06/08 11:13:09;;;;;;;5.10;3.20;;;793.70;1843.20;;;;;;5053425;28;20033;-76
2021/06/08 11:15:43;;;;;;;5.18;3.13;;;793.80;1817.60;;;;;;5053096;28;20451;-72
2021/06/08 11:18:21;;;;;;;4.43;3.05;;;793.70;1792.00;;;;;;5053351;28;20364;-73
2021/06/08 11:21:06;;;;;;;5.25;2.97;;;768.90;1766.40;;;;;;5053362;28;20025;-73
2021/06/08 11:23:45;;;;;;;4.82;3.28;;;793.60;1766.40;;;;;;5052430;28;20045;-73
2021/06/08 11:26:15;;;;;;;5.32;3.13;;;793.70;1817.60;;;;;;5053302;28;20104;-73
2021/06/08 11:28:50;;;;;;;6.55;3.17;;;768.90;1766.40;;;;;;5039491;28;20040;-72
2021/06/08 11:31:22;;;;;;;4.57;2.90;;;793.70;1792.00;;;;;;5053166;28;20036;-73
2021/06/08 11:34:04;;;;;;;4.68;2.90;;;793.70;1715.20;;;;;;5053286;28;20123;-72
2021/06/08 11:36:31;;;;;;;5.85;2.90;;;793.80;1689.60;;;;;;5052756;28;20025;-73
2021/06/08 11:39:22;;;;;;;4.43;3.13;;;793.80;1766.40;;;;;;5062164;28;20035;-69
2021/06/08 11:41:58;;;;;;;4.53;2.92;;;793.90;1740.80;;;;;;5051677;28;20119;-69
2021/06/08 11:44:24;;;;;;;5.47;3.10;;;794.00;1715.20;;;;;;5070565;28;20021;-69
2021/06/08 11:47:00;;;;;;;5.25;2.90;;;794.00;1664.00;;;;;;5065521;28;20020;-69
2021/06/08 11:49:28;;;;;;;5.93;3.10;;;794.00;1664.00;;;;;;5071350;28;20385;-70
2021/06/08 11:52:12;;;;;;;5.70;2.92;;;794.20;1664.00;;;;;;5069964;28;20055;-69
2021/06/08 11:54:44;;;;;;;4.80;2.88;;;794.30;1612.80;;;;;;5065353;28;20051;-69
2021/06/08 11:57:13;;;;;;;7.95;3.45;;;794.20;1612.80;;;;;;5063803;28;20021;-69
2021/06/08 11:59:44;;;;;;;5.13;2.90;;;794.10;1612.80;;;;;;5060586;28;20108;-69
2021/06/08 12:02:32;;;;;;;4.85;3.03;;;794.20;1612.80;;;;;;5052431;28;20021;-69
2021/06/08 12:05:12;;;;;;;6.47;3.40;;;794.20;1612.80;;;;;;5052450;28;20048;-69
2021/06/08 12:07:53;;;;;;;5.90;3.10;;;794.20;1638.40;;;;;;5052219;28;20506;-72
2021/06/08 12:10:38;;;;;;;5.57;3.20;;;794.10;1587.20;;;;;;5052197;28;20478;-72
2021/06/08 12:13:04;;;;;;;5.50;2.80;;;794.50;1664.00;;;;;;5046326;28;20055;-73
2021/06/08 12:15:34;;;;;;;5.32;3.08;;;819.20;1612.80;;;;;;5052222;28;20111;-73
2021/06/08 12:18:03;;;;;;;6.18;2.80;;;819.20;1587.20;;;;;;5052340;28;20059;-73
2021/06/08 12:20:30;;;;;;;4.68;2.95;;;794.50;1561.60;;;;;;5052288;28;20021;-70
2021/06/08 12:22:56;;;;;;;4.13;2.80;;;794.40;1561.60;;;;;;5052419;28;20116;-70
2021/06/08 12:25:22;;;;;;;6.07;3.63;;;794.50;1536.00;;;;;;5052552;28;20032;-69
2021/06/08 12:27:49;;;;;;;4.80;2.97;;;794.50;1587.20;;;;;;5052303;28;20060;-70
2021/06/08 12:30:27;;;;;;;5.78;3.10;;;794.50;1561.60;;;;;;5052085;28;20029;-69
2021/06/08 12:32:55;;;;;;;4.68;2.90;;;819.20;1561.60;;;;;;5052505;28;20112;-70
2021/06/08 12:35:31;;;;;;;5.82;3.10;;;819.20;1561.60;;;;;;5051934;28;20017;-69
2021/06/08 12:38:14;;;;;;;4.95;3.30;;;819.30;1536.00;;;;;;5052429;28;20356;-69
2021/06/08 12:40:41;;;;;;;4.95;3.28;;;819.30;1561.60;;;;;;5039073;28;20026;-69
2021/06/08 12:43:08;;;;;;;4.97;3.10;;;819.30;1561.60;;;;;;5052314;28;20052;-69
2021/06/08 12:45:34;;;;;;;6.40;3.08;;;819.30;1536.00;;;;;;5052058;28;20094;-69
2021/06/08 12:48:00;;;;;;;4.13;2.80;;;794.50;1536.00;;;;;;5052303;28;20029;-72
2021/06/08 12:50:35;;;;;;;6.95;3.13;;;819.30;1536.00;;;;;;5052132;28;20025;-73
2021/06/08 12:53:05;;;;;;;5.68;3.20;;;819.40;1510.40;;;;;;5052128;28;20029;-74
2021/06/08 12:55:34;;;;;;;5.10;3.08;;;819.40;1536.00;;;;;;5051854;28;20025;-74
2021/06/08 12:58:03;;;;;;;6.50;3.17;;;819.30;1510.40;;;;;;5051913;28;20029;-70
2021/06/08 13:00:32;;;;;;;4.53;3.38;;;819.30;1510.40;;;;;;5051923;28;20021;-69
2021/06/08 13:03:03;;;;;;;5.53;3.25;;;819.50;1510.40;;;;;;5051795;28;20025;-72
2021/06/08 13:05:32;;;;;;;5.53;3.10;;;819.60;1510.40;;;;;;5059435;28;20028;-69
2021/06/08 13:07:58;;;;;;;4.57;2.80;;;819.60;1510.40;;;;;;5063472;28;20514;-69
2021/06/08 13:10:26;;;;;;;4.95;3.00;;;819.60;1536.00;;;;;;5053518;28;20037;-69
2021/06/08 13:12:54;;;;;;;3.95;2.90;;;819.80;1510.40;;;;;;5068730;28;20028;-69
2021/06/08 13:15:40;;;;;;;4.75;2.90;;;819.70;1484.80;;;;;;5055666;28;20382;-70
2021/06/08 13:18:17;;;;;;;4.50;3.05;;;819.80;1484.80;;;;;;5055566;28;20059;-69
2021/06/08 13:20:55;;;;;;;4.13;2.67;;;819.80;1510.40;;;;;;5055605;28;20017;-72
2021/06/08 13:23:24;;;;;;;8.07;2.80;;;819.70;1459.20;;;;;;5055385;28;20025;-69
2021/06/08 13:26:12;;;;;;;3.45;2.60;;;819.40;1459.20;;;;;;5055842;28;20356;-69
2021/06/08 13:28:42;;;;;;;6.32;3.20;;;819.60;1433.60;;;;;;5055452;28;20101;-69
2021/06/08 13:31:17;;;;;;;4.80;3.00;;;819.30;1459.20;;;;;;5055547;28;20021;-69
2021/06/08 13:33:45;;;;;;;6.00;2.90;;;819.20;1459.20;;;;;;5055326;28;20448;-70
2021/06/08 13:36:26;;;;;;;4.50;2.83;;;794.50;1459.20;;;;;;5055148;28;20032;-70
2021/06/08 13:38:52;;;;;;;5.38;3.08;;;794.50;1459.20;;;;;;5054924;28;20036;-70
2021/06/08 13:41:17;;;;;;;4.18;2.95;;;819.30;1459.20;;;;;;5055407;28;20033;-69
2021/06/08 13:43:45;;;;;;;4.45;3.50;;;819.60;1510.40;;;;;;5054399;28;20028;-69
2021/06/08 13:46:17;;;;;;;4.53;3.10;;;819.60;1484.80;;;;;;5055011;28;20032;-70
2021/06/08 13:48:58;;;;;;;6.95;3.42;;;819.80;1484.80;;;;;;5055117;28;20021;-70
2021/06/08 13:51:28;;;;;;;5.28;3.30;;;819.60;1484.80;;;;;;5055232;28;20033;-69
2021/06/08 13:54:20;;;;;;;4.57;3.50;;;819.80;1484.80;;;;;;5054877;28;20561;-70
2021/06/08 13:57:05;;;;;;;5.55;3.70;;;819.50;1484.80;;;;;;5054911;28;20108;-69
2021/06/08 14:02:51;;;;;;;4.45;3.28;;;819.30;1484.80;;;;;;5055106;28;20079;-72
2021/06/08 14:05:23;;;;;;;5.00;3.20;;;819.50;1484.80;;;;;;5055105;28;20035;-69
2021/06/08 14:07:50;;;;;;;3.95;2.90;;;819.20;1484.80;;;;;;5041261;28;20048;-68
2021/06/08 14:10:17;;;;;;;6.10;3.17;;;794.50;1484.80;;;;;;5054976;28;20025;-68
2021/06/08 14:13:08;;;;;;;5.35;3.05;;;794.20;1484.80;;;;;;5054849;28;20512;-69
2021/06/08 14:15:54;;;;;;;4.43;3.00;;;794.00;1459.20;;;;;;5054210;28;20111;-68
2021/06/08 14:18:20;;;;;;;5.97;2.72;;;793.60;1484.80;;;;;;5053993;28;20082;-68
2021/06/08 14:20:46;;;;;;;3.80;2.58;;;768.90;1433.60;;;;;;5054896;28;20107;-72
2021/06/08 14:23:12;;;;;;;5.43;2.65;;;793.60;1484.80;;;;;;5035133;28;20155;-75
2021/06/08 14:25:38;;;;;;;5.78;3.08;;;768.80;1433.60;;;;;;5054627;28;20033;-72
2021/06/08 14:28:05;;;;;;;5.13;3.65;;;768.90;1433.60;;;;;;5054590;28;20021;-70
2021/06/08 14:30:31;;;;;;;7.10;4.53;;;768.00;1638.40;;;;;;5054266;28;20024;-69
2021/06/08 14:32:57;;;;;;;6.05;4.30;;;742.90;1715.20;;;;;;5053305;28;20033;-69
2021/06/08 14:35:24;;;;;;;5.28;3.80;;;742.40;1766.40;;;;;;5053446;28;20100;-67
2021/06/08 14:37:50;;;;;;;7.43;4.05;;;717.40;1766.40;;;;;;5053913;28;20060;-70
2021/06/08 14:40:16;;;;;;;6.13;4.05;;;716.90;1792.00;;;;;;5054048;28;20017;-70
2021/06/08 14:42:42;;;;;;;5.50;4.25;;;716.80;1817.60;;;;;;5054084;28;20021;-70
2021/06/08 14:45:09;;;;;;;6.32;4.53;;;716.80;1817.60;;;;;;5053732;28;20037;-70
2021/06/08 14:47:35;;;;;;;5.28;4.03;;;717.00;1792.00;;;;;;5054118;28;20060;-69
2021/06/08 14:50:02;;;;;;;5.70;3.47;;;716.80;1766.40;;;;;;5054029;28;20024;-68
2021/06/08 14:52:30;;;;;;;5.15;3.40;;;692.10;1740.80;;;;;;5054098;28;20390;-69
2021/06/08 14:54:58;;;;;;;5.07;3.60;;;717.10;1792.00;;;;;;5053667;28;20028;-69
2021/06/08 14:57:23;;;;;;;4.10;2.92;;;717.20;1740.80;;;;;;5053727;28;20040;-69
2021/06/08 14:59:49;;;;;;;5.18;3.30;;;717.40;1715.20;;;;;;5053694;28;20057;-68
2021/06/08 15:02:16;;;;;;;6.20;3.17;;;717.60;1715.20;;;;;;5053840;28;20116;-69
2021/06/08 15:04:43;;;;;;;6.75;3.33;;;717.70;1715.20;;;;;;5053871;28;20067;-68
2021/06/08 15:07:09;;;;;;;5.15;3.45;;;717.70;1689.60;;;;;;5053179;28;20510;-69
2021/06/08 15:09:35;;;;;;;5.53;3.60;;;717.70;1689.60;;;;;;5053609;28;20040;-69
2021/06/08 15:12:02;;;;;;;6.15;3.35;;;717.70;1689.60;;;;;;5053513;28;20518;-68
2021/06/08 15:14:28;;;;;;;6.07;3.40;;;742.40;1715.20;;;;;;5053262;28;20380;-69
2021/06/08 15:16:53;;;;;;;4.70;3.30;;;742.60;1715.20;;;;;;5053404;28;20104;-68
2021/06/08 15:19:20;;;;;;;4.05;2.80;;;742.40;1715.20;;;;;;5053693;28;20021;-71
2021/06/08 15:21:48;;;;;;;4.30;3.00;;;742.50;1740.80;;;;;;5053575;28;20039;-69
2021/06/08 15:24:14;;;;;;;6.78;3.00;;;742.60;1689.60;;;;;;5053587;28;20029;-69
2021/06/08 15:26:41;;;;;;;5.20;2.95;;;742.80;1638.40;;;;;;5053049;28;20029;-71
2021/06/08 15:29:07;;;;;;;5.35;2.90;;;743.00;1612.80;;;;;;5053219;28;20100;-70
2021/06/08 15:31:34;;;;;;;4.10;2.78;;;743.10;1587.20;;;;;;5053257;28;20111;-69
2021/06/08 15:34:01;;;;;;;3.60;3.00;;;743.10;1587.20;;;;;;5052593;28;20052;-70
2021/06/08 15:36:27;;;;;;;4.82;2.90;;;743.10;1587.20;;;;;;5052972;28;20013;-70
2021/06/08 15:38:53;;;;;;;7.28;2.92;;;743.10;1561.60;;;;;;5052990;28;20104;-70
2021/06/08 15:41:18;;;;;;;4.13;2.80;;;743.10;1536.00;;;;;;5053009;28;20068;-69
2021/06/08 15:43:45;;;;;;;6.05;3.08;;;743.10;1561.60;;;;;;5053157;28;20029;-70
2021/06/08 15:46:11;;;;;;;4.90;2.80;;;743.20;1561.60;;;;;;5052687;28;20057;-70
2021/06/08 15:48:37;;;;;;;5.45;2.90;;;743.20;1561.60;;;;;;5052767;28;20071;-69
2021/06/08 15:51:03;;;;;;;5.07;2.83;;;743.20;1561.60;;;;;;5052846;28;20025;-69
2021/06/08 15:53:29;;;;;;;4.30;2.60;;;743.20;1561.60;;;;;;5052506;28;20111;-69
2021/06/08 15:55:55;;;;;;;5.20;2.90;;;743.10;1561.60;;;;;;5052662;28;20112;-69
2021/06/08 15:58:21;;;;;;;6.18;2.78;;;743.20;1561.60;;;;;;5052667;28;20074;-69
2021/06/08 16:00:47;;;;;;;4.00;2.90;;;743.30;1561.60;;;;;;5052484;28;20032;-70
2021/06/08 16:03:13;;;;;;;5.18;3.00;;;743.10;1510.40;;;;;;5052906;28;20033;-70
2021/06/08 16:05:39;;;;;;;5.30;3.10;;;743.00;1536.00;;;;;;5052484;28;20036;-69
2021/06/08 16:08:06;;;;;;;4.63;3.05;;;742.90;1561.60;;;;;;5052279;28;20041;-69
2021/06/08 16:10:35;;;;;;;4.13;2.90;;;742.70;1536.00;;;;;;5052182;28;20521;-69
2021/06/08 16:13:02;;;;;;;5.30;2.70;;;742.40;1536.00;;;;;;5052187;28;20074;-74
2021/06/08 16:15:28;;;;;;;6.22;2.88;;;717.70;1510.40;;;;;;5051948;28;20055;-69
2021/06/08 16:17:53;;;;;;;4.70;3.00;;;717.50;1510.40;;;;;;5052070;28;20033;-69
2021/06/08 16:20:19;;;;;;;4.40;2.95;;;717.50;1536.00;;;;;;5057033;28;20073;-67
2021/06/08 16:22:45;;;;;;;6.53;3.00;;;717.50;1561.60;;;;;;5067630;28;20070;-67
2021/06/08 16:25:11;;;;;;;7.50;2.90;;;717.50;1561.60;;;;;;5052578;28;20029;-68
2021/06/08 16:27:39;;;;;;;6.30;3.20;;;717.50;1536.00;;;;;;5052279;28;20096;-70